Time;durP1;ratioP1;P1;durP2;ratioP2;P2;SDS_P1;SDS_P2;PMS_P1;PMS_P2;Temp;Humidity;BMP_temperature;BMP_pressure;BME280_temperature;BME280_humidity;BME280_pressure;Samples;Min_cycle;Max_cycle;Signal;HPM_P1;HPM_P2
2024/03/27 00:00:52;;;;;;;4.90;1.70;;;18.00;63.90;;;;;;6186900;23;20139;-82
2024/03/27 00:03:23;;;;;;;5.05;1.67;;;18.00;64.00;;;;;;6186709;23;20214;-83
2024/03/27 00:05:49;;;;;;;7.78;1.83;;;18.00;64.20;;;;;;6136938;23;20154;-81
2024/03/27 00:08:15;;;;;;;2.47;1.42;;;18.00;64.00;;;;;;6162514;23;20214;-82
2024/03/27 00:10:41;;;;;;;5.78;1.70;;;18.00;64.30;;;;;;6186676;23;20582;-81
2024/03/27 00:13:07;;;;;;;6.32;1.60;;;18.00;64.10;;;;;;6186664;23;20131;-82
2024/03/27 00:15:33;;;;;;;2.70;1.60;;;18.10;63.90;;;;;;6186545;23;20595;-82
2024/03/27 00:17:59;;;;;;;4.88;1.38;;;18.00;65.20;;;;;;6162003;23;20199;-82
2024/03/27 00:20:25;;;;;;;3.80;1.33;;;18.00;64.10;;;;;;6188134;23;20193;-82
2024/03/27 00:22:52;;;;;;;4.10;1.92;;;18.00;64.30;;;;;;6161750;23;20159;-82
2024/03/27 00:25:19;;;;;;;4.18;1.92;;;18.00;63.80;;;;;;6137316;23;20151;-82
2024/03/27 00:27:45;;;;;;;6.97;1.85;;;17.90;64.20;;;;;;6161973;23;20151;-82
2024/03/27 00:30:11;;;;;;;8.75;2.28;;;18.00;64.30;;;;;;6137401;23;20185;-82
2024/03/27 00:32:36;;;;;;;4.40;1.60;;;17.90;63.80;;;;;;6162411;23;20632;-82
2024/03/27 00:35:03;;;;;;;3.92;1.50;;;18.00;63.80;;;;;;6161728;23;20202;-82
2024/03/27 00:37:30;;;;;;;6.18;1.70;;;18.00;64.00;;;;;;6187830;23;20181;-83
2024/03/27 00:39:56;;;;;;;3.72;1.73;;;18.00;63.80;;;;;;6137853;23;20151;-81
2024/03/27 00:42:24;;;;;;;5.50;1.38;;;17.90;64.10;;;;;;6161550;23;20159;-82
2024/03/27 00:44:49;;;;;;;5.13;1.60;;;17.90;63.90;;;;;;6162091;23;20179;-84
2024/03/27 00:47:18;;;;;;;2.80;1.30;;;18.00;64.00;;;;;;6161561;23;20585;-82
2024/03/27 00:49:44;;;;;;;5.80;1.63;;;18.00;64.20;;;;;;6135804;23;20193;-82
2024/03/27 00:52:14;;;;;;;3.08;1.55;;;18.00;64.20;;;;;;6161474;23;20174;-82
2024/03/27 00:54:44;;;;;;;5.47;1.63;;;17.90;64.30;;;;;;6110527;23;20194;-82
2024/03/27 00:57:09;;;;;;;5.13;1.60;;;18.00;64.00;;;;;;6111105;23;20162;-82
2024/03/27 00:59:35;;;;;;;3.80;1.40;;;17.90;63.90;;;;;;6161552;23;20139;-82
2024/03/27 01:02:01;;;;;;;3.08;1.30;;;17.90;64.00;;;;;;6161532;23;20231;-82
2024/03/27 01:04:27;;;;;;;6.70;1.60;;;18.00;64.00;;;;;;6161404;23;20135;-83
2024/03/27 01:06:53;;;;;;;4.75;1.50;;;17.90;64.10;;;;;;6161389;23;20193;-82
2024/03/27 01:09:19;;;;;;;5.07;1.50;;;17.90;63.90;;;;;;6161292;23;20146;-82
2024/03/27 01:11:45;;;;;;;5.13;1.40;;;17.90;63.90;;;;;;6161333;23;20216;-82
2024/03/27 01:14:12;;;;;;;5.68;1.70;;;18.00;64.20;;;;;;6160555;23;20253;-82
2024/03/27 01:16:43;;;;;;;3.83;1.60;;;17.90;64.00;;;;;;6185829;23;20186;-83
2024/03/27 01:19:11;;;;;;;2.95;1.60;;;18.00;64.20;;;;;;6136217;23;20182;-82
2024/03/27 01:21:37;;;;;;;5.00;1.70;;;17.90;64.20;;;;;;6135755;23;20214;-82
2024/03/27 01:24:04;;;;;;;4.28;1.80;;;17.90;64.00;;;;;;6161029;23;20139;-82
2024/03/27 01:26:31;;;;;;;5.72;1.50;;;17.90;63.90;;;;;;6160356;23;20155;-82
2024/03/27 01:29:01;;;;;;;3.47;1.60;;;17.90;64.30;;;;;;6086950;23;20151;-82
2024/03/27 01:31:28;;;;;;;3.00;1.60;;;17.90;64.00;;;;;;6086977;23;20633;-83
2024/03/27 01:33:54;;;;;;;3.40;1.38;;;17.90;64.10;;;;;;6187309;23;20214;-82
2024/03/27 01:36:20;;;;;;;3.90;1.40;;;17.90;64.20;;;;;;6185511;23;20141;-82
2024/03/27 01:38:46;;;;;;;3.90;1.52;;;17.90;64.10;;;;;;6160896;23;20474;-82
2024/03/27 01:41:12;;;;;;;5.97;1.48;;;17.90;64.30;;;;;;6160591;23;20150;-82
2024/03/27 01:43:38;;;;;;;4.57;1.55;;;17.90;64.10;;;;;;6160962;23;20131;-82
2024/03/27 01:46:08;;;;;;;3.47;1.45;;;17.90;64.20;;;;;;6186046;23;20139;-82
2024/03/27 01:48:34;;;;;;;3.25;1.65;;;17.90;64.30;;;;;;6136300;23;20174;-82
2024/03/27 01:51:00;;;;;;;1.85;1.45;;;18.00;64.20;;;;;;6136339;23;20182;-82
2024/03/27 01:53:25;;;;;;;3.25;1.70;;;17.80;63.90;;;;;;6159818;23;20190;-82
2024/03/27 01:55:52;;;;;;;4.65;1.77;;;17.90;64.10;;;;;;6186819;23;20567;-82
2024/03/27 01:58:18;;;;;;;4.40;1.67;;;17.80;64.30;;;;;;6186844;23;20135;-82
2024/03/27 02:00:44;;;;;;;2.83;1.50;;;17.90;64.10;;;;;;6186683;23;20174;-82
2024/03/27 02:03:10;;;;;;;3.13;1.35;;;17.90;64.00;;;;;;6136263;23;20150;-82
2024/03/27 02:05:36;;;;;;;3.58;1.40;;;17.90;63.80;;;;;;6160576;23;20143;-82
2024/03/27 02:08:02;;;;;;;3.42;1.50;;;17.90;63.90;;;;;;6160272;23;20135;-81
2024/03/27 02:10:29;;;;;;;3.00;1.33;;;17.90;64.30;;;;;;6160533;23;20537;-82
2024/03/27 02:12:56;;;;;;;3.47;1.52;;;17.90;63.90;;;;;;6160475;23;20158;-80
2024/03/27 02:15:23;;;;;;;4.90;1.65;;;18.00;64.00;;;;;;6135459;23;20150;-83
2024/03/27 02:17:52;;;;;;;3.90;1.50;;;17.90;64.90;;;;;;6160198;23;20130;-83
2024/03/27 02:20:21;;;;;;;4.50;1.33;;;17.80;64.40;;;;;;6086246;23;20158;-82
2024/03/27 02:22:48;;;;;;;2.90;1.40;;;17.90;64.20;;;;;;6110273;23;20253;-82
2024/03/27 02:25:26;;;;;;;2.88;1.50;;;17.80;64.00;;;;;;6136253;23;20781;-82
2024/03/27 02:27:54;;;;;;;5.82;1.67;;;17.80;64.30;;;;;;6065571;23;20161;-82
2024/03/27 02:30:22;;;;;;;2.78;1.60;;;17.80;64.50;;;;;;6086084;23;20186;-82
2024/03/27 02:32:50;;;;;;;2.67;1.67;;;17.80;64.30;;;;;;6086461;23;20154;-82
2024/03/27 02:35:19;;;;;;;4.53;1.58;;;17.80;64.50;;;;;;6110811;23;20155;-82
2024/03/27 02:37:48;;;;;;;4.15;1.63;;;17.80;64.00;;;;;;6086705;23;20608;-82
2024/03/27 02:40:15;;;;;;;3.63;1.70;;;17.90;64.50;;;;;;6086480;23;20162;-82
2024/03/27 02:42:41;;;;;;;4.18;1.20;;;17.70;64.30;;;;;;6135589;23;20147;-81
2024/03/27 02:45:08;;;;;;;3.05;1.42;;;17.80;64.70;;;;;;6160677;23;20142;-82
2024/03/27 02:47:35;;;;;;;2.97;1.40;;;17.80;64.60;;;;;;6186870;23;20158;-83
2024/03/27 02:50:02;;;;;;;4.25;1.80;;;17.70;64.30;;;;;;6162272;23;20618;-82
2024/03/27 02:52:29;;;;;;;3.13;1.52;;;17.70;64.40;;;;;;6162101;23;20131;-82
2024/03/27 02:54:55;;;;;;;2.38;1.50;;;17.80;64.30;;;;;;6139457;23;20191;-82
2024/03/27 02:57:21;;;;;;;3.83;1.15;;;17.80;64.40;;;;;;6108070;23;20230;-82
2024/03/27 02:59:47;;;;;;;5.20;1.55;;;17.80;64.30;;;;;;6108036;23;20163;-82
2024/03/27 03:02:13;;;;;;;4.53;1.42;;;17.80;64.40;;;;;;6132849;23;20163;-82
2024/03/27 03:04:38;;;;;;;4.00;1.63;;;17.80;64.30;;;;;;6132690;23;20464;-82
2024/03/27 03:07:04;;;;;;;5.55;1.75;;;17.70;64.10;;;;;;6133117;23;20140;-81
2024/03/27 03:09:30;;;;;;;4.65;1.40;;;17.80;64.20;;;;;;6132395;23;20614;-82
2024/03/27 03:11:56;;;;;;;2.65;1.50;;;17.80;64.30;;;;;;6108017;23;20512;-82
2024/03/27 03:14:22;;;;;;;3.63;1.80;;;17.80;64.20;;;;;;6108279;23;20152;-82
2024/03/27 03:16:50;;;;;;;3.22;1.35;;;17.80;64.30;;;;;;6107590;23;20156;-82
2024/03/27 03:19:16;;;;;;;3.30;1.50;;;17.80;64.00;;;;;;6132352;23;20128;-82
2024/03/27 03:21:42;;;;;;;3.47;1.38;;;17.70;64.50;;;;;;6132536;23;20518;-81
2024/03/27 03:24:08;;;;;;;2.42;1.23;;;17.70;64.60;;;;;;6132422;23;20127;-82
2024/03/27 03:26:34;;;;;;;3.22;1.50;;;17.70;64.40;;;;;;6132628;23;20135;-82
2024/03/27 03:29:02;;;;;;;2.95;1.38;;;17.70;64.50;;;;;;6132347;23;20573;-81
2024/03/27 03:31:28;;;;;;;3.15;1.45;;;17.80;64.40;;;;;;6132370;23;20494;-82
2024/03/27 03:33:53;;;;;;;1.98;1.10;;;17.70;64.50;;;;;;6132092;23;20151;-82
2024/03/27 03:36:19;;;;;;;4.70;1.60;;;17.70;64.50;;;;;;6132165;23;20136;-82
2024/03/27 03:38:45;;;;;;;5.45;1.70;;;17.80;64.50;;;;;;6107853;23;20525;-82
2024/03/27 03:41:12;;;;;;;3.67;1.60;;;17.70;64.40;;;;;;6107837;23;20151;-82
2024/03/27 03:43:38;;;;;;;2.92;1.60;;;17.70;64.80;;;;;;6132603;23;20139;-82
2024/03/27 03:46:04;;;;;;;3.97;1.27;;;17.70;64.70;;;;;;6107631;23;20159;-82
2024/03/27 03:48:29;;;;;;;5.57;1.48;;;17.70;64.70;;;;;;6132288;23;20270;-81
2024/03/27 03:50:55;;;;;;;2.90;1.38;;;17.60;64.70;;;;;;6132178;23;20171;-82
2024/03/27 03:53:21;;;;;;;1.90;1.42;;;17.70;64.50;;;;;;6134443;23;20206;-81
2024/03/27 03:55:47;;;;;;;3.10;1.50;;;17.70;64.70;;;;;;6161822;23;20146;-82
2024/03/27 03:58:13;;;;;;;6.20;1.67;;;17.60;64.90;;;;;;6161606;23;20131;-82
2024/03/27 04:00:39;;;;;;;2.58;1.50;;;17.70;64.80;;;;;;6161171;23;20467;-82
2024/03/27 04:03:09;;;;;;;2.22;1.10;;;17.70;64.40;;;;;;6161556;23;20155;-83
2024/03/27 04:05:35;;;;;;;3.53;1.45;;;17.70;64.70;;;;;;6136068;23;20159;-82
2024/03/27 04:08:01;;;;;;;2.05;1.40;;;17.70;64.80;;;;;;6161755;23;20189;-82
2024/03/27 04:10:27;;;;;;;3.67;1.20;;;17.70;64.90;;;;;;6186222;23;20479;-83
2024/03/27 04:12:57;;;;;;;3.50;1.60;;;17.60;64.90;;;;;;6161273;23;20153;-82
2024/03/27 04:15:24;;;;;;;4.22;1.80;;;17.70;64.50;;;;;;6111759;23;20205;-82
2024/03/27 04:17:52;;;;;;;1.67;1.30;;;17.70;64.60;;;;;;6161608;23;20516;-82
2024/03/27 04:20:18;;;;;;;4.47;1.30;;;17.70;64.50;;;;;;6111454;23;20154;-82
2024/03/27 04:22:46;;;;;;;2.90;1.50;;;17.70;64.70;;;;;;6185958;23;20143;-82
2024/03/27 04:25:19;;;;;;;2.75;1.42;;;17.70;64.60;;;;;;6160686;23;20154;-82
2024/03/27 04:27:45;;;;;;;2.30;1.33;;;17.70;64.20;;;;;;6090300;23;20158;-82
2024/03/27 04:30:11;;;;;;;2.40;1.63;;;17.60;64.60;;;;;;6136585;23;20182;-82
2024/03/27 04:32:38;;;;;;;2.42;1.45;;;17.70;64.40;;;;;;6160782;23;20143;-82
2024/03/27 04:35:06;;;;;;;3.15;1.48;;;17.70;64.60;;;;;;6161169;23;20147;-82
2024/03/27 04:37:31;;;;;;;2.97;1.55;;;17.70;64.10;;;;;;6161421;23;20229;-82
2024/03/27 04:39:59;;;;;;;2.25;1.42;;;17.70;64.70;;;;;;6161323;23;20722;-82
2024/03/27 04:42:25;;;;;;;3.58;1.50;;;17.70;64.70;;;;;;6161540;23;20147;-82
2024/03/27 04:44:53;;;;;;;3.53;1.48;;;17.60;64.70;;;;;;6185888;23;20139;-82
2024/03/27 04:47:19;;;;;;;1.90;1.27;;;17.70;64.70;;;;;;6136482;23;20147;-82
2024/03/27 04:49:45;;;;;;;2.42;1.27;;;17.60;64.60;;;;;;6136679;23;20178;-82
2024/03/27 04:52:11;;;;;;;4.28;1.42;;;17.70;64.70;;;;;;6161285;23;20457;-82
2024/03/27 04:54:36;;;;;;;4.60;1.75;;;17.60;64.70;;;;;;6160252;23;20190;-82
2024/03/27 04:57:03;;;;;;;2.55;1.45;;;17.70;64.80;;;;;;6160807;23;20221;-83
2024/03/27 04:59:29;;;;;;;4.18;1.30;;;17.70;64.60;;;;;;6161048;23;20447;-82
2024/03/27 05:01:55;;;;;;;2.17;1.40;;;17.60;64.80;;;;;;6160842;23;20208;-82
2024/03/27 05:04:22;;;;;;;3.97;1.38;;;17.70;64.50;;;;;;6160349;23;20238;-82
2024/03/27 05:06:49;;;;;;;1.75;1.30;;;17.70;64.80;;;;;;6160857;23;20131;-82
2024/03/27 05:09:15;;;;;;;1.95;1.17;;;17.60;64.60;;;;;;6160960;23;20159;-82
2024/03/27 05:11:40;;;;;;;2.22;1.60;;;17.60;64.40;;;;;;6136235;23;20338;-82
2024/03/27 05:14:06;;;;;;;1.90;1.33;;;17.60;64.50;;;;;;6136228;23;20213;-82
2024/03/27 05:16:34;;;;;;;4.47;1.33;;;17.60;64.40;;;;;;6160790;23;20602;-82
2024/03/27 05:18:59;;;;;;;2.15;1.30;;;17.70;64.40;;;;;;6110899;23;20218;-82
2024/03/27 05:21:27;;;;;;;2.15;1.30;;;17.70;64.30;;;;;;6160215;23;20158;-82
2024/03/27 05:23:54;;;;;;;2.45;1.50;;;17.60;64.40;;;;;;6160924;23;20135;-82
2024/03/27 05:26:25;;;;;;;3.45;1.13;;;17.60;64.50;;;;;;6062554;23;20154;-82
2024/03/27 05:28:55;;;;;;;2.90;1.40;;;17.60;64.80;;;;;;6110513;23;20159;-82
2024/03/27 05:31:22;;;;;;;2.65;1.50;;;17.60;64.50;;;;;;6135393;23;20284;-82
2024/03/27 05:33:49;;;;;;;3.03;1.35;;;17.70;64.50;;;;;;6110451;23;20150;-82
2024/03/27 05:36:15;;;;;;;4.18;1.58;;;17.70;64.50;;;;;;6184877;23;20147;-82
2024/03/27 05:38:41;;;;;;;3.97;1.42;;;17.60;64.50;;;;;;6160301;23;20586;-82
2024/03/27 05:41:12;;;;;;;2.03;1.25;;;17.60;64.40;;;;;;6185217;23;20138;-82
2024/03/27 05:43:41;;;;;;;2.30;1.45;;;17.60;64.40;;;;;;6135105;23;20155;-83
2024/03/27 05:46:06;;;;;;;2.55;1.70;;;17.60;64.50;;;;;;6110240;23;20205;-82
2024/03/27 05:48:35;;;;;;;2.03;1.38;;;17.60;64.40;;;;;;6160160;23;20155;-83
2024/03/27 05:51:02;;;;;;;4.63;1.10;;;17.60;64.70;;;;;;6185405;23;20237;-83
2024/03/27 05:53:28;;;;;;;2.30;1.52;;;17.60;64.70;;;;;;6183773;23;20230;-82
2024/03/27 05:55:56;;;;;;;2.85;1.70;;;17.60;64.10;;;;;;6159908;23;20150;-82
2024/03/27 05:58:24;;;;;;;4.00;1.38;;;17.60;64.40;;;;;;6136073;23;20150;-82
2024/03/27 06:00:50;;;;;;;3.25;1.40;;;17.60;64.80;;;;;;6159975;23;20139;-82
2024/03/27 06:03:15;;;;;;;2.33;1.40;;;17.60;64.50;;;;;;6160164;23;20577;-82
2024/03/27 06:05:42;;;;;;;1.63;1.30;;;17.60;64.70;;;;;;6160258;23;20567;-82
2024/03/27 06:08:08;;;;;;;2.80;1.50;;;17.60;64.50;;;;;;6184995;23;20135;-82
2024/03/27 06:10:34;;;;;;;2.22;1.20;;;17.60;64.40;;;;;;6160346;23;20556;-82
2024/03/27 06:13:04;;;;;;;1.92;1.20;;;17.60;64.60;;;;;;6160681;23;20135;-82
2024/03/27 06:15:30;;;;;;;2.50;1.48;;;17.60;64.10;;;;;;6160641;23;20127;-82
2024/03/27 06:17:56;;;;;;;1.83;1.40;;;17.60;64.40;;;;;;6161251;23;20174;-82
2024/03/27 06:20:23;;;;;;;2.63;1.50;;;17.60;64.40;;;;;;6185552;23;20646;-82
2024/03/27 06:22:50;;;;;;;3.10;1.70;;;17.60;64.20;;;;;;6185300;23;20185;-83
2024/03/27 06:25:17;;;;;;;2.05;1.35;;;17.70;64.30;;;;;;6161119;23;20864;-82
2024/03/27 06:27:43;;;;;;;2.55;1.38;;;17.70;64.40;;;;;;6161425;23;20558;-82
2024/03/27 06:30:10;;;;;;;3.33;1.38;;;17.70;64.40;;;;;;6160542;23;20162;-82
2024/03/27 06:32:39;;;;;;;2.67;1.38;;;17.70;64.80;;;;;;6185743;23;20661;-83
2024/03/27 06:35:06;;;;;;;3.05;1.58;;;17.60;64.40;;;;;;6161018;23;20154;-82
2024/03/27 06:37:33;;;;;;;2.20;1.20;;;17.60;64.50;;;;;;6136605;23;20153;-82
2024/03/27 06:39:59;;;;;;;2.33;1.50;;;17.60;64.40;;;;;;6185527;23;20651;-82
2024/03/27 06:42:25;;;;;;;2.72;1.35;;;17.70;64.50;;;;;;6160528;23;20150;-82
2024/03/27 06:44:54;;;;;;;1.75;1.30;;;17.60;64.40;;;;;;6185525;23;20230;-82
2024/03/27 06:47:26;;;;;;;3.42;1.58;;;17.70;64.50;;;;;;6135872;23;20154;-82
2024/03/27 06:49:52;;;;;;;1.73;1.38;;;17.60;64.50;;;;;;6160885;23;20170;-83
2024/03/27 06:52:19;;;;;;;2.58;1.50;;;17.60;64.30;;;;;;6135042;23;20206;-83
2024/03/27 06:54:48;;;;;;;2.35;1.50;;;17.60;64.40;;;;;;6138912;23;20270;-82
2024/03/27 06:57:18;;;;;;;1.38;1.17;;;17.60;64.40;;;;;;6130522;23;20137;-82
2024/03/27 06:59:44;;;;;;;2.22;1.38;;;17.60;64.40;;;;;;6056936;23;20155;-82
2024/03/27 07:02:11;;;;;;;2.00;1.25;;;17.60;64.60;;;;;;6131109;23;20193;-81
2024/03/27 07:04:39;;;;;;;3.35;1.70;;;17.60;64.60;;;;;;6131092;23;20255;-81
2024/03/27 07:07:30;;;;;;;2.15;1.60;;;17.60;64.40;;;;;;6110208;23;20159;-80
2024/03/27 07:09:55;;;;;;;1.80;1.30;;;17.60;64.40;;;;;;6110089;23;20187;-81
2024/03/27 07:12:31;;;;;;;1.92;1.30;;;17.70;64.30;;;;;;6109778;23;20203;-81
2024/03/27 07:14:57;;;;;;;1.63;1.33;;;17.70;64.40;;;;;;6138870;23;20142;-82
2024/03/27 07:17:22;;;;;;;2.95;1.35;;;17.70;64.10;;;;;;6110092;23;20148;-82
2024/03/27 07:19:51;;;;;;;1.80;1.30;;;17.70;64.00;;;;;;6134262;23;20140;-82
2024/03/27 07:22:17;;;;;;;3.50;1.60;;;17.70;63.70;;;;;;6110197;23;20159;-83
2024/03/27 07:24:51;;;;;;;2.70;1.40;;;17.70;63.80;;;;;;6110528;23;20148;-82
2024/03/27 07:27:17;;;;;;;2.67;1.60;;;17.70;63.40;;;;;;6067493;23;20158;-82
2024/03/27 07:29:46;;;;;;;2.20;1.60;;;17.70;63.70;;;;;;6092863;23;20173;-83
2024/03/27 07:32:17;;;;;;;2.88;1.30;;;17.80;63.40;;;;;;6089775;23;20638;-85
2024/03/27 07:34:44;;;;;;;3.17;1.92;;;17.80;63.30;;;;;;6092633;23;20134;-83
2024/03/27 07:37:10;;;;;;;4.53;1.58;;;17.70;63.60;;;;;;6070694;23;20156;-82
2024/03/27 07:39:37;;;;;;;2.95;1.85;;;17.80;63.40;;;;;;6073273;23;20150;-83
2024/03/27 07:42:03;;;;;;;2.10;1.55;;;17.70;63.60;;;;;;6095850;23;20153;-82
2024/03/27 07:44:28;;;;;;;4.30;1.50;;;17.70;63.80;;;;;;6096561;23;20529;-81
2024/03/27 07:46:55;;;;;;;3.08;1.80;;;17.80;63.70;;;;;;6070705;23;20562;-81
2024/03/27 07:49:30;;;;;;;1.85;1.48;;;17.60;64.00;;;;;;6045878;23;20149;-82
2024/03/27 07:51:59;;;;;;;3.05;1.58;;;17.70;64.00;;;;;;6048386;23;20156;-81
2024/03/27 07:54:52;;;;;;;;;;;;;;;;;;;;;
2024/03/27 07:57:19;;;;;;;1.92;1.40;;;17.80;63.50;;;;;;6059928;23;20185;-81
2024/03/27 07:59:48;;;;;;;2.40;1.42;;;17.80;63.50;;;;;;6110665;23;20128;-82
2024/03/27 08:02:32;;;;;;;2.80;1.70;;;17.80;63.60;;;;;;6112568;23;20155;-83
2024/03/27 08:05:01;;;;;;;2.15;1.60;;;17.80;63.70;;;;;;6061123;23;20156;-81
2024/03/27 08:07:26;;;;;;;2.05;1.45;;;17.80;63.50;;;;;;6109497;23;20167;-82
2024/03/27 08:09:54;;;;;;;4.10;1.67;;;17.90;63.80;;;;;;6116544;23;20175;-82
2024/03/27 08:12:22;;;;;;;2.70;1.90;;;17.80;63.50;;;;;;6110779;23;20157;-83
2024/03/27 08:14:47;;;;;;;1.85;1.40;;;17.90;63.50;;;;;;6084800;23;20168;-81
2024/03/27 08:17:13;;;;;;;2.05;1.42;;;17.80;63.80;;;;;;6087147;23;20242;-82
2024/03/27 08:19:40;;;;;;;1.88;1.42;;;17.80;64.10;;;;;;6112675;23;20199;-82
2024/03/27 08:22:11;;;;;;;3.78;1.50;;;17.80;63.50;;;;;;6089962;23;20148;-81
2024/03/27 08:24:41;;;;;;;7.38;1.70;;;17.90;63.20;;;;;;6089774;23;20167;-82
2024/03/27 08:27:11;;;;;;;4.40;1.67;;;17.90;63.10;;;;;;6062769;23;20160;-81
2024/03/27 08:29:41;;;;;;;3.63;1.60;;;18.00;62.70;;;;;;6088640;23;20183;-83
2024/03/27 08:32:09;;;;;;;4.47;1.77;;;17.90;63.50;;;;;;6085388;23;20159;-83
2024/03/27 08:34:35;;;;;;;2.20;1.50;;;18.00;63.30;;;;;;6105540;23;20218;-81
2024/03/27 08:37:02;;;;;;;1.90;1.48;;;17.90;63.40;;;;;;6034615;23;20185;-82
2024/03/27 08:39:29;;;;;;;3.90;1.80;;;17.90;63.60;;;;;;6103676;23;20644;-83
2024/03/27 08:41:55;;;;;;;3.00;1.80;;;17.90;63.50;;;;;;6035352;23;20161;-82
2024/03/27 08:44:22;;;;;;;2.97;1.60;;;17.90;63.30;;;;;;6082042;23;20157;-82
2024/03/27 08:46:50;;;;;;;2.00;1.48;;;18.00;63.70;;;;;;6024752;23;20177;-82
2024/03/27 08:49:22;;;;;;;1.85;1.25;;;17.90;63.60;;;;;;6026109;23;20190;-82
2024/03/27 08:51:56;;;;;;;2.08;1.52;;;17.90;63.40;;;;;;6001560;23;20205;-82
2024/03/27 08:54:25;;;;;;;2.25;1.85;;;18.00;62.90;;;;;;5999562;23;20208;-82
2024/03/27 08:56:51;;;;;;;5.10;1.63;;;18.00;62.10;;;;;;6048459;23;20183;-82
2024/03/27 08:59:17;;;;;;;3.47;1.73;;;18.10;62.60;;;;;;6049040;23;20164;-82
2024/03/27 09:01:45;;;;;;;1.70;1.60;;;18.00;62.80;;;;;;6024113;23;20154;-82
2024/03/27 09:04:11;;;;;;;2.55;1.95;;;18.10;62.50;;;;;;6072061;23;20142;-81
2024/03/27 09:06:37;;;;;;;3.67;1.42;;;18.10;62.40;;;;;;6099251;23;20241;-82
2024/03/27 09:09:04;;;;;;;3.72;1.77;;;18.10;63.20;;;;;;6052938;23;20156;-82
2024/03/27 09:11:32;;;;;;;2.55;2.25;;;18.00;63.00;;;;;;6028654;23;20205;-83
2024/03/27 09:13:58;;;;;;;5.68;2.08;;;18.10;61.50;;;;;;6075987;23;20156;-82
2024/03/27 09:16:24;;;;;;;3.65;1.80;;;18.20;62.60;;;;;;6051870;23;20157;-82
2024/03/27 09:18:52;;;;;;;3.47;2.00;;;18.10;63.00;;;;;;6110235;23;20147;-82
2024/03/27 09:21:22;;;;;;;3.22;1.80;;;18.10;62.80;;;;;;6092494;23;20214;-83
2024/03/27 09:23:48;;;;;;;3.75;1.92;;;18.10;62.30;;;;;;6115706;23;20152;-83
2024/03/27 09:26:15;;;;;;;3.75;1.85;;;18.10;62.70;;;;;;6115783;23;20165;-83
2024/03/27 09:28:41;;;;;;;3.33;1.73;;;18.10;62.80;;;;;;6164564;23;20167;-82
2024/03/27 09:31:10;;;;;;;3.85;2.10;;;18.10;62.90;;;;;;6117412;23;20171;-83
2024/03/27 09:33:39;;;;;;;5.38;1.85;;;18.10;62.50;;;;;;6167008;23;20139;-83
2024/03/27 09:36:12;;;;;;;9.57;1.90;;;18.10;62.80;;;;;;6117417;23;20153;-83
2024/03/27 09:38:38;;;;;;;3.50;1.88;;;18.20;62.90;;;;;;6141834;23;20151;-83
2024/03/27 09:41:05;;;;;;;5.40;2.20;;;18.20;62.70;;;;;;6141075;23;20132;-83
2024/03/27 09:43:34;;;;;;;6.25;2.22;;;18.20;62.50;;;;;;6116130;23;20183;-83
2024/03/27 09:46:04;;;;;;;5.30;2.25;;;18.20;63.20;;;;;;6141067;23;20135;-82
2024/03/27 09:48:41;;;;;;;3.58;2.00;;;18.10;63.00;;;;;;6116078;23;20183;-83
2024/03/27 09:51:12;;;;;;;5.70;2.42;;;18.10;63.40;;;;;;6140855;23;20535;-82
2024/03/27 09:53:43;;;;;;;3.92;1.77;;;18.10;63.60;;;;;;6097492;23;20182;-82
2024/03/27 09:56:13;;;;;;;4.30;2.00;;;18.10;63.30;;;;;;6145992;23;20193;-82
2024/03/27 09:58:39;;;;;;;8.77;2.30;;;18.10;63.40;;;;;;6145987;23;20147;-82
2024/03/27 10:01:06;;;;;;;3.47;2.33;;;18.10;63.40;;;;;;6166765;23;20529;-82
2024/03/27 10:03:57;;;;;;;3.50;1.98;;;18.10;63.30;;;;;;6163661;23;20135;-82
2024/03/27 10:06:45;;;;;;;4.13;2.20;;;18.10;63.20;;;;;;6131808;23;20198;-81
2024/03/27 10:09:18;;;;;;;6.05;2.20;;;18.10;63.40;;;;;;6104306;23;20231;-82
2024/03/27 10:11:46;;;;;;;4.22;2.08;;;18.20;63.20;;;;;;6100099;23;20175;-81
2024/03/27 10:14:12;;;;;;;2.30;1.80;;;18.20;63.60;;;;;;6101253;23;20223;-80
2024/03/27 10:17:06;;;;;;;3.67;2.50;;;18.20;63.30;;;;;;6129937;23;20136;-81
2024/03/27 10:19:35;;;;;;;6.43;2.60;;;18.20;63.00;;;;;;6107146;23;20152;-82
2024/03/27 10:22:08;;;;;;;3.97;1.95;;;18.30;62.50;;;;;;6134947;23;20236;-81
2024/03/27 10:24:37;;;;;;;4.28;2.00;;;18.20;63.00;;;;;;6110509;23;20176;-82
2024/03/27 10:27:06;;;;;;;5.80;2.22;;;18.30;62.90;;;;;;6103559;23;20164;-81
2024/03/27 10:29:32;;;;;;;5.85;2.20;;;18.20;63.30;;;;;;6080671;23;20173;-81
2024/03/27 10:32:12;;;;;;;3.72;2.00;;;18.30;63.30;;;;;;6105199;23;20153;-82
2024/03/27 10:34:47;;;;;;;4.20;2.75;;;18.20;62.90;;;;;;6057526;23;20643;-81
2024/03/27 10:37:15;;;;;;;4.80;2.30;;;18.20;63.30;;;;;;6057768;23;20160;-81
2024/03/27 10:39:52;;;;;;;7.30;2.33;;;18.20;63.30;;;;;;6086015;23;20179;-82
2024/03/27 10:42:22;;;;;;;4.60;2.30;;;18.10;63.30;;;;;;6039014;23;20215;-81
2024/03/27 10:45:03;;;;;;;6.40;2.10;;;18.10;63.30;;;;;;6108619;23;20158;-81
2024/03/27 10:47:31;;;;;;;2.78;2.00;;;18.20;63.00;;;;;;6108306;23;20148;-81
2024/03/27 10:50:03;;;;;;;3.95;2.30;;;18.10;63.20;;;;;;6096603;23;20267;-81
2024/03/27 10:52:31;;;;;;;4.72;2.20;;;18.20;63.30;;;;;;6086542;23;20159;-81
2024/03/27 10:54:56;;;;;;;3.08;2.10;;;18.10;63.10;;;;;;6051604;23;20204;-81
2024/03/27 10:57:29;;;;;;;5.20;2.40;;;18.10;63.20;;;;;;6118398;23;20151;-81
2024/03/27 10:59:55;;;;;;;4.22;2.05;;;18.20;63.20;;;;;;6134748;23;20143;-79
2024/03/27 11:02:24;;;;;;;2.40;1.88;;;18.20;63.00;;;;;;6114281;23;20231;-81
2024/03/27 11:04:55;;;;;;;4.20;2.40;;;18.30;63.00;;;;;;6139191;23;20143;-81
2024/03/27 11:07:31;;;;;;;3.72;2.22;;;18.20;63.60;;;;;;6115620;23;20552;-81
2024/03/27 11:09:57;;;;;;;4.30;2.00;;;18.20;62.90;;;;;;6116983;23;20175;-80
2024/03/27 11:12:27;;;;;;;3.78;2.10;;;18.20;63.00;;;;;;6143134;23;20170;-80
2024/03/27 11:14:58;;;;;;;4.53;2.40;;;18.20;63.00;;;;;;6141784;23;20150;-82
2024/03/27 11:17:27;;;;;;;4.07;2.08;;;18.20;63.00;;;;;;6117214;23;20179;-81
2024/03/27 11:19:58;;;;;;;3.80;2.28;;;18.20;63.00;;;;;;6116093;23;20147;-81
2024/03/27 11:22:24;;;;;;;2.28;1.90;;;18.20;63.00;;;;;;6141092;23;20590;-81
2024/03/27 11:24:51;;;;;;;5.47;2.13;;;18.20;63.10;;;;;;6164749;23;20159;-81
2024/03/27 11:27:32;;;;;;;3.63;2.40;;;18.20;62.90;;;;;;6135207;23;20157;-81
2024/03/27 11:30:02;;;;;;;2.10;1.88;;;18.20;62.40;;;;;;6134966;23;20175;-81
2024/03/27 11:32:37;;;;;;;4.13;2.30;;;18.30;62.70;;;;;;6088837;23;20151;-81
2024/03/27 11:35:07;;;;;;;5.05;2.10;;;18.30;62.90;;;;;;6158481;23;20139;-81
2024/03/27 11:37:38;;;;;;;3.58;1.98;;;18.20;62.80;;;;;;6133989;23;20147;-81
2024/03/27 11:40:05;;;;;;;3.78;2.30;;;18.20;62.90;;;;;;6108823;23;20165;-81
2024/03/27 11:42:30;;;;;;;2.88;2.08;;;18.20;62.70;;;;;;6108766;23;20175;-81
2024/03/27 11:44:57;;;;;;;2.38;2.08;;;18.20;62.80;;;;;;6156552;23;20147;-80
2024/03/27 11:47:23;;;;;;;5.78;2.50;;;18.20;62.90;;;;;;6131617;23;20144;-81
2024/03/27 11:49:49;;;;;;;3.35;2.65;;;18.20;63.00;;;;;;6132250;23;20258;-83
2024/03/27 11:52:15;;;;;;;2.55;2.00;;;18.20;62.80;;;;;;6131781;23;20128;-80
2024/03/27 11:54:42;;;;;;;2.58;2.00;;;18.20;62.70;;;;;;6106446;23;20266;-81
2024/03/27 11:57:08;;;;;;;2.95;2.30;;;18.20;62.90;;;;;;6131711;23;20135;-81
2024/03/27 11:59:35;;;;;;;3.60;2.25;;;18.20;62.60;;;;;;6130880;23;20135;-81
2024/03/27 12:02:03;;;;;;;2.78;2.22;;;18.20;62.90;;;;;;6081625;23;20151;-81
2024/03/27 12:04:29;;;;;;;2.80;2.10;;;18.20;62.80;;;;;;6107769;23;20219;-81
2024/03/27 12:06:58;;;;;;;2.72;2.08;;;18.20;63.00;;;;;;6131179;23;20230;-81
2024/03/27 12:09:23;;;;;;;3.35;2.20;;;18.20;62.80;;;;;;6106451;23;20158;-81
2024/03/27 12:11:55;;;;;;;3.00;2.13;;;18.20;62.70;;;;;;6130618;23;20167;-81
2024/03/27 12:14:22;;;;;;;3.92;2.17;;;18.20;62.90;;;;;;6034838;23;20206;-81
2024/03/27 12:16:48;;;;;;;4.15;2.40;;;18.20;62.80;;;;;;6133428;23;20132;-81
2024/03/27 12:19:15;;;;;;;2.90;2.30;;;18.20;62.90;;;;;;6107298;23;20222;-81
2024/03/27 12:21:41;;;;;;;4.28;2.20;;;18.10;62.90;;;;;;6134469;23;20140;-81
2024/03/27 12:24:10;;;;;;;3.20;2.20;;;18.20;62.90;;;;;;6110428;23;20266;-81
2024/03/27 12:26:38;;;;;;;2.75;2.00;;;18.20;62.80;;;;;;6084742;23;20467;-81
2024/03/27 12:29:05;;;;;;;3.17;2.10;;;18.20;62.70;;;;;;6110481;23;20152;-81
2024/03/27 12:31:31;;;;;;;3.20;2.28;;;18.30;62.50;;;;;;6134166;23;20218;-81
2024/03/27 12:33:57;;;;;;;2.70;1.98;;;18.30;62.20;;;;;;6159350;23;20211;-80
2024/03/27 12:36:23;;;;;;;2.70;2.13;;;18.30;62.20;;;;;;6130923;23;20874;-80
2024/03/27 12:38:49;;;;;;;4.82;2.20;;;18.30;62.20;;;;;;6130679;23;20211;-81
2024/03/27 12:41:21;;;;;;;2.20;2.00;;;18.30;62.30;;;;;;6106282;23;20175;-80
2024/03/27 12:43:47;;;;;;;3.42;2.10;;;18.30;62.10;;;;;;6132150;23;20159;-81
2024/03/27 12:46:13;;;;;;;2.30;1.92;;;18.30;62.30;;;;;;6133011;23;20136;-80
2024/03/27 12:48:39;;;;;;;3.42;2.60;;;18.30;62.20;;;;;;6131745;23;20139;-81
2024/03/27 12:51:05;;;;;;;2.55;1.92;;;18.30;62.10;;;;;;6131570;23;20167;-81